Time;durP1;ratioP1;P1;durP2;ratioP2;P2;SDS_P1;SDS_P2;PMS_P1;PMS_P2;Temp;Humidity;BMP_temperature;BMP_pressure;BME280_temperature;BME280_humidity;BME280_pressure;Samples;Min_cycle;Max_cycle;Signal;HPM_P1;HPM_P2
2023/09/12 00:04:17;;;;;;;8.18;4.20;;;;;;;16.59;82.74;100948.56;10386179;28;20525;-73
2023/09/12 00:09:19;;;;;;;8.45;4.60;;;;;;;16.65;82.71;100952.84;10400644;28;20054;-73
2023/09/12 00:14:21;;;;;;;10.05;4.05;;;;;;;16.50;82.28;100945.75;10391127;28;20053;-73
2023/09/12 00:19:23;;;;;;;11.43;5.05;;;;;;;16.41;83.08;100944.03;10396250;28;20045;-72
2023/09/12 00:24:26;;;;;;;9.20;4.95;;;;;;;16.33;83.31;100953.09;10388532;28;20049;-71
2023/09/12 00:29:28;;;;;;;6.57;4.18;;;;;;;16.18;83.74;100952.31;10405454;28;20037;-74
2023/09/12 00:34:30;;;;;;;9.20;4.07;;;;;;;16.21;84.91;100946.13;10408920;28;20049;-74
2023/09/12 00:39:32;;;;;;;11.02;4.43;;;;;;;16.15;84.62;100954.88;10397037;28;20536;-72
2023/09/12 00:44:34;;;;;;;5.93;3.83;;;;;;;16.07;84.62;100955.59;10409200;28;20037;-72
2023/09/12 00:49:38;;;;;;;9.02;4.10;;;;;;;16.00;85.54;100949.66;10390166;28;20053;-72
2023/09/12 00:54:40;;;;;;;6.75;4.47;;;;;;;16.05;85.10;100955.09;10408354;28;20041;-72
2023/09/12 00:59:43;;;;;;;7.32;4.10;;;;;;;15.97;85.24;100957.47;10397262;28;20038;-72
2023/09/12 01:04:46;;;;;;;9.35;4.50;;;;;;;15.83;86.37;100964.97;10406660;28;20045;-72
2023/09/12 01:09:48;;;;;;;7.85;4.68;;;;;;;15.78;86.69;100962.28;10387047;28;20042;-72
2023/09/12 01:14:50;;;;;;;7.28;4.15;;;;;;;15.75;87.10;100965.66;10382033;28;20046;-72
2023/09/12 01:19:53;;;;;;;9.93;4.65;;;;;;;15.85;86.52;100959.13;10402456;28;20500;-72
2023/09/12 01:25:13;;;;;;;8.02;4.75;;;;;;;15.74;86.88;100957.66;10405913;28;20053;-72
2023/09/12 01:30:21;;;;;;;8.02;5.03;;;;;;;15.65;87.13;100954.81;10406051;28;20424;-72
2023/09/12 01:35:23;;;;;;;7.85;4.55;;;;;;;15.66;88.13;100953.69;10378432;28;20046;-72
2023/09/12 01:40:43;;;;;;;7.25;4.38;;;;;;;15.60;87.93;100955.72;10387511;28;20061;-72
2023/09/12 01:45:50;;;;;;;9.07;4.47;;;;;;;15.44;88.05;100954.34;10395065;28;20050;-71
2023/09/12 01:50:53;;;;;;;10.10;5.18;;;;;;;15.32;88.52;100954.03;10404432;28;20472;-72
2023/09/12 01:55:57;;;;;;;7.80;4.72;;;;;;;15.39;89.40;100955.28;10371172;28;20433;-73
2023/09/12 02:00:59;;;;;;;9.20;4.85;;;;;;;15.20;89.58;100960.06;10386627;28;20038;-72
2023/09/12 02:06:01;;;;;;;8.57;5.40;;;;;;;15.15;90.06;100962.09;10403670;28;20555;-72
2023/09/12 02:11:03;;;;;;;10.52;4.97;;;;;;;15.25;90.13;100956.38;10387819;28;20041;-72
2023/09/12 02:16:06;;;;;;;9.32;5.30;;;;;;;15.18;89.95;100947.66;10404596;28;20147;-72
2023/09/12 02:21:08;;;;;;;11.07;5.55;;;;;;;15.09;90.26;100942.81;10386493;28;20050;-72
2023/09/12 02:26:10;;;;;;;9.60;4.97;;;;;;;15.01;91.19;100945.47;10387253;28;20054;-72
2023/09/12 02:31:12;;;;;;;9.57;5.60;;;;;;;15.03;90.60;100937.69;10382682;28;20041;-72
2023/09/12 02:36:15;;;;;;;10.45;5.05;;;;;;;14.79;91.14;100943.38;10401724;28;20064;-72
2023/09/12 02:41:17;;;;;;;12.73;5.97;;;;;;;14.67;92.77;100941.06;10385402;28;20037;-72
2023/09/12 02:46:19;;;;;;;8.98;5.50;;;;;;;14.77;93.04;100948.38;10403433;28;20033;-72
2023/09/12 02:51:21;;;;;;;10.57;5.78;;;;;;;14.80;92.14;100945.03;10381996;28;20049;-73
2023/09/12 02:56:23;;;;;;;9.30;5.53;;;;;;;14.72;92.30;100937.41;10367038;28;20058;-73
2023/09/12 03:01:28;;;;;;;8.93;5.60;;;;;;;14.65;93.20;100937.81;10401135;28;20050;-73
2023/09/12 03:06:31;;;;;;;10.55;5.80;;;;;;;14.73;92.97;100931.56;10380102;28;20033;-73
2023/09/12 03:11:34;;;;;;;13.00;5.72;;;;;;;14.85;92.26;100930.28;10383580;28;20060;-73
2023/09/12 03:16:37;;;;;;;11.52;5.40;;;;;;;14.74;91.75;100926.88;10377682;28;20050;-73
2023/09/12 03:21:40;;;;;;;7.95;5.43;;;;;;;14.79;92.13;100935.09;10383548;28;20049;-73
2023/09/12 03:26:42;;;;;;;13.73;5.78;;;;;;;14.75;91.18;100937.66;10363718;28;20042;-73
2023/09/12 03:31:44;;;;;;;9.57;5.93;;;;;;;14.78;91.10;100948.09;10380641;28;20054;-73
2023/09/12 03:36:47;;;;;;;12.65;6.40;;;;;;;14.91;91.07;100943.69;10367807;28;20500;-72
2023/09/12 03:41:49;;;;;;;11.23;5.80;;;;;;;15.09;89.96;100929.00;10399969;28;20042;-73
2023/09/12 03:46:52;;;;;;;9.57;5.38;;;;;;;15.13;89.35;100926.47;10414947;28;20511;-73
2023/09/12 03:51:54;;;;;;;12.45;6.07;;;;;;;15.47;87.46;100931.63;10383125;28;20042;-73
2023/09/12 03:56:57;;;;;;;9.32;5.72;;;;;;;15.82;85.45;100923.75;10399215;28;20034;-73
2023/09/12 04:02:02;;;;;;;9.63;5.00;;;;;;;16.25;82.88;100929.72;10387578;28;20049;-73
2023/09/12 04:07:05;;;;;;;9.52;6.38;;;;;;;16.51;80.39;100930.75;10391375;28;20050;-74
2023/09/12 04:12:09;;;;;;;9.52;6.25;;;;;;;16.77;79.64;100927.38;10393039;28;20065;-74
2023/09/12 04:17:11;;;;;;;10.52;5.70;;;;;;;17.21;77.78;100928.47;10408684;28;20045;-73
2023/09/12 04:22:13;;;;;;;10.88;7.10;;;;;;;17.30;76.86;100927.34;10424328;28;20030;-72
2023/09/12 04:27:16;;;;;;;10.73;6.13;;;;;;;17.57;76.28;100931.06;10422706;28;20053;-74
2023/09/12 04:32:23;;;;;;;12.93;7.30;;;;;;;18.19;73.24;100926.16;10374228;28;20042;-74
2023/09/12 04:37:25;;;;;;;11.68;6.28;;;;;;;18.61;71.55;100926.53;10374637;28;20050;-73
2023/09/12 04:42:28;;;;;;;15.02;7.35;;;;;;;18.78;70.26;100912.63;10424585;28;20416;-73
2023/09/12 04:47:30;;;;;;;14.30;7.57;;;;;;;18.96;69.50;100910.63;10374329;28;20045;-74
2023/09/12 04:52:33;;;;;;;11.57;7.10;;;;;;;19.42;68.04;100918.16;10405184;28;20145;-73
2023/09/12 04:57:35;;;;;;;16.13;7.18;;;;;;;19.86;66.01;100916.00;10406048;28;20042;-74
2023/09/12 05:02:37;;;;;;;15.00;7.95;;;;;;;20.15;66.15;100910.41;10386887;28;20045;-73
2023/09/12 05:07:40;;;;;;;15.00;7.10;;;;;;;20.59;63.89;100910.88;10387989;28;20041;-73
2023/09/12 05:12:42;;;;;;;14.52;7.03;;;;;;;20.75;63.09;100903.50;10387741;28;20067;-74
2023/09/12 05:17:45;;;;;;;12.10;7.13;;;;;;;21.15;62.23;100905.69;10388320;28;20046;-73
2023/09/12 05:22:47;;;;;;;14.20;7.55;;;;;;;21.22;61.70;100905.94;10388096;28;20052;-73
2023/09/12 05:27:50;;;;;;;16.67;7.72;;;;;;;22.01;59.89;100908.53;10389262;28;20049;-74
2023/09/12 05:32:54;;;;;;;15.45;7.45;;;;;;;21.72;59.89;100912.41;10389347;28;20492;-73
2023/09/12 05:37:58;;;;;;;14.45;8.10;;;;;;;22.06;60.00;100917.53;10404149;28;20054;-72
2023/09/12 05:43:00;;;;;;;13.65;7.85;;;;;;;22.32;58.67;100910.69;10406380;28;20037;-73
2023/09/12 05:48:03;;;;;;;14.20;7.07;;;;;;;22.49;58.45;100913.22;10421021;28;20412;-72
2023/09/12 05:53:08;;;;;;;12.23;6.80;;;;;;;23.01;56.74;100910.31;10420235;28;20045;-73
2023/09/12 05:58:11;;;;;;;12.35;6.63;;;;;;;23.29;56.40;100910.25;10406073;28;20041;-73
2023/09/12 06:03:14;;;;;;;12.50;6.90;;;;;;;23.34;55.72;100909.97;10387863;28;20037;-73
2023/09/12 06:08:17;;;;;;;12.65;6.07;;;;;;;24.02;55.08;100906.88;10406021;28;20444;-74
2023/09/12 06:13:21;;;;;;;14.20;5.90;;;;;;;23.96;54.98;100899.94;10404883;28;20053;-73
2023/09/12 06:18:24;;;;;;;8.57;5.43;;;;;;;24.48;53.70;100904.28;10405775;28;20042;-73
2023/09/12 06:23:26;;;;;;;8.65;5.15;;;;;;;24.78;52.66;100903.66;10404399;28;20416;-73
2023/09/12 06:28:30;;;;;;;9.65;6.22;;;;;;;25.45;49.86;100893.69;10405845;28;20041;-73
2023/09/12 06:33:33;;;;;;;11.82;5.70;;;;;;;25.20;51.20;100892.47;10405046;28;20057;-73
2023/09/12 06:38:35;;;;;;;14.52;5.55;;;;;;;25.48;50.75;100892.94;10405556;28;20483;-73
2023/09/12 06:43:37;;;;;;;11.15;6.10;;;;;;;25.83;49.80;100894.72;10387494;28;20048;-73
2023/09/12 06:48:40;;;;;;;9.50;5.75;;;;;;;25.89;49.06;100898.84;10386441;28;20133;-73
2023/09/12 06:53:43;;;;;;;11.43;5.53;;;;;;;26.15;49.18;100890.38;10399908;28;20046;-73
2023/09/12 06:58:45;;;;;;;8.57;5.05;;;;;;;25.76;50.03;100894.63;10379794;28;20054;-73
2023/09/12 07:03:48;;;;;;;7.70;4.50;;;;;;;26.61;47.73;100893.00;10385263;28;20065;-73
2023/09/12 07:08:51;;;;;;;9.90;4.97;;;;;;;26.64;47.09;100892.22;10402781;28;20042;-74
2023/09/12 07:13:53;;;;;;;9.57;4.85;;;;;;;26.96;46.50;100892.59;10397515;28;20034;-73
2023/09/12 07:18:57;;;;;;;8.00;4.43;;;;;;;27.71;45.19;100895.31;10402482;28;20054;-74
2023/09/12 07:23:59;;;;;;;11.68;5.35;;;;;;;26.71;46.95;100902.75;10402861;28;20053;-73
2023/09/12 07:29:02;;;;;;;9.48;4.18;;;;;;;25.99;48.50;100884.09;10385449;28;20045;-73
2023/09/12 07:34:04;;;;;;;7.82;4.30;;;;;;;26.68;47.04;100884.63;10399893;28;20046;-73
2023/09/12 07:39:07;;;;;;;7.00;4.32;;;;;;;26.94;46.64;100900.59;10401258;28;20527;-73
2023/09/12 07:44:15;;;;;;;11.52;4.70;;;;;;;25.97;48.55;100897.75;10401703;28;20042;-73
2023/09/12 07:49:17;;;;;;;10.05;5.35;;;;;;;26.59;47.37;100895.38;10398683;28;20420;-73
2023/09/12 07:54:19;;;;;;;9.00;5.07;;;;;;;27.55;45.57;100896.34;10383904;28;20444;-72
2023/09/12 07:59:22;;;;;;;6.55;3.90;;;;;;;27.83;44.57;100895.81;10401465;28;20041;-72
2023/09/12 08:04:24;;;;;;;8.35;4.15;;;;;;;28.79;42.82;100892.63;10398836;28;20050;-73
2023/09/12 08:09:50;;;;;;;9.82;4.60;;;;;;;29.27;41.90;100892.34;10402839;28;20645;-74
2023/09/12 08:14:52;;;;;;;;;;;;;;;29.00;42.18;100900.41;10396779;28;20042;-74
2023/09/12 08:19:54;;;;;;;5.18;3.97;;;;;;;29.07;42.13;100892.75;10373518;28;20314;-75
2023/09/12 08:24:57;;;;;;;8.13;3.88;;;;;;;28.91;42.53;100897.94;10414729;28;20053;-75
2023/09/12 08:29:59;;;;;;;7.45;4.30;;;;;;;28.44;43.33;100880.00;10444217;28;20412;-75
2023/09/12 08:35:03;;;;;;;7.63;3.58;;;;;;;29.50;41.49;100877.84;10413586;28;20531;-75
2023/09/12 08:40:08;;;;;;;5.60;3.67;;;;;;;27.63;44.22;100886.00;10443231;28;20056;-75
2023/09/12 08:45:17;;;;;;;4.78;3.38;;;;;;;27.53;45.56;100878.22;10411347;28;20034;-75
2023/09/12 08:50:20;;;;;;;5.43;3.50;;;;;;;27.72;44.81;100866.72;10404951;28;20046;-74
2023/09/12 08:55:23;;;;;;;10.88;3.58;;;;;;;27.21;46.49;100870.31;10393938;28;20038;-76
2023/09/12 09:00:26;;;;;;;5.13;3.60;;;;;;;28.36;43.78;100869.09;10406936;28;20041;-76
2023/09/12 09:05:28;;;;;;;6.60;3.78;;;;;;;25.63;49.33;100876.31;10392705;28;20053;-76
2023/09/12 09:10:32;;;;;;;9.30;3.75;;;;;;;24.47;52.99;100870.97;10426337;28;20073;-75
2023/09/12 09:15:36;;;;;;;5.28;3.45;;;;;;;24.47;53.48;100870.97;10407395;28;20077;-76
2023/09/12 09:20:40;;;;;;;5.15;3.45;;;;;;;24.79;53.24;100866.00;10392000;28;20044;-75
2023/09/12 09:25:51;;;;;;;5.57;3.72;;;;;;;24.47;53.70;100859.75;10408542;28;20424;-75
2023/09/12 09:30:54;;;;;;;8.13;4.22;;;;;;;24.72;52.57;100872.28;10407333;28;20539;-77
2023/09/12 09:36:03;;;;;;;7.03;3.85;;;;;;;24.27;54.17;100876.56;10405982;28;20406;-74
2023/09/12 09:41:08;;;;;;;5.10;3.30;;;;;;;24.25;54.00;100870.50;10390016;28;20038;-76
2023/09/12 09:46:15;;;;;;;6.07;3.88;;;;;;;24.62;52.71;100856.03;10407725;28;20052;-76
2023/09/12 09:51:18;;;;;;;5.80;4.18;;;;;;;24.71;52.87;100855.84;10367187;28;20056;-80
2023/09/12 09:56:21;;;;;;;4.80;4.18;;;;;;;24.63;53.69;100855.66;10402568;28;20137;-83
2023/09/12 10:01:33;;;;;;;7.22;3.85;;;;;;;24.87;52.26;100851.72;10434091;28;20044;-82
2023/09/12 10:06:36;;;;;;;6.15;3.35;;;;;;;24.90;52.52;100848.19;10408666;28;20417;-82
2023/09/12 10:11:40;;;;;;;5.35;3.50;;;;;;;24.61;53.15;100848.81;10392525;28;20061;-78
2023/09/12 10:16:44;;;;;;;5.88;4.13;;;;;;;24.63;53.92;100857.66;10403237;28;20102;-79
2023/09/12 10:21:50;;;;;;;8.90;4.30;;;;;;;24.64;53.10;100856.47;10400625;28;20576;-81
2023/09/12 10:26:53;;;;;;;9.18;3.67;;;;;;;24.19;53.90;100860.78;10402517;28;20034;-80
2023/09/12 10:31:56;;;;;;;6.43;3.95;;;;;;;24.42;53.72;100855.25;10378874;28;20044;-80
2023/09/12 10:37:04;;;;;;;4.57;3.40;;;;;;;24.25;53.40;100856.47;10386955;28;20578;-78
2023/09/12 10:42:07;;;;;;;8.50;3.85;;;;;;;24.35;53.84;100858.75;10404009;28;20072;-77
2023/09/12 10:47:09;;;;;;;9.20;4.53;;;;;;;24.35;53.65;100858.75;10403060;28;20053;-82
2023/09/12 10:52:24;;;;;;;5.80;3.67;;;;;;;24.32;53.66;100858.66;10404126;28;20523;-73
2023/09/12 10:57:27;;;;;;;6.68;3.60;;;;;;;24.48;53.16;100856.59;10396352;28;20053;-78
2023/09/12 11:02:31;;;;;;;7.18;3.88;;;;;;;24.56;52.72;100863.97;10397390;28;20034;-79
2023/09/12 11:07:44;;;;;;;9.52;3.95;;;;;;;24.30;53.11;100856.25;10368702;28;20042;-80
2023/09/12 11:12:51;;;;;;;4.20;3.13;;;;;;;24.28;53.90;100847.31;10402643;28;20058;-78
2023/09/12 11:18:04;;;;;;;8.10;3.83;;;;;;;24.30;53.40;100847.81;10402708;28;20628;-78
2023/09/12 11:23:11;;;;;;;5.45;3.08;;;;;;;24.22;53.66;100845.19;10401508;28;20385;-73
2023/09/12 11:28:13;;;;;;;8.00;3.65;;;;;;;24.19;53.06;100841.13;10401806;28;20038;-79
2023/09/12 11:33:16;;;;;;;5.78;3.63;;;;;;;24.25;53.43;100845.25;10400858;28;20053;-79
2023/09/12 11:38:29;;;;;;;6.57;3.95;;;;;;;24.39;53.31;100841.16;10401673;28;20420;-75
2023/09/12 11:43:32;;;;;;;5.15;3.53;;;;;;;24.49;53.05;100841.41;10383964;28;20042;-86
2023/09/12 11:48:34;;;;;;;5.72;3.70;;;;;;;24.14;54.21;100827.44;10382162;28;20049;-81
2023/09/12 11:53:37;;;;;;;5.45;3.78;;;;;;;24.17;53.31;100829.47;10394248;28;20112;-83
2023/09/12 11:58:39;;;;;;;6.95;3.85;;;;;;;24.31;53.35;100835.44;10399527;28;20396;-83
2023/09/12 12:03:42;;;;;;;5.65;4.20;;;;;;;24.71;52.25;100820.16;10399437;28;20057;-78
2023/09/12 12:08:45;;;;;;;5.97;3.90;;;;;;;24.52;52.67;100814.59;10401729;28;20046;-74
2023/09/12 12:13:48;;;;;;;6.68;4.07;;;;;;;24.31;53.16;100823.41;10411480;28;20064;-73
2023/09/12 12:18:54;;;;;;;7.90;3.90;;;;;;;24.44;52.88;100815.63;10413073;28;20041;-81
2023/09/12 12:24:03;;;;;;;4.70;3.50;;;;;;;24.33;54.08;100826.63;10402671;28;20045;-79
2023/09/12 12:29:05;;;;;;;5.07;3.67;;;;;;;24.22;53.50;100815.16;10409557;28;20502;-77
2023/09/12 12:34:07;;;;;;;5.50;3.63;;;;;;;24.21;53.40;100829.56;10407513;28;20054;-74
2023/09/12 12:39:14;;;;;;;8.70;4.18;;;;;;;24.20;53.08;100816.72;10404876;28;20034;-73
2023/09/12 12:44:17;;;;;;;10.23;4.40;;;;;;;24.18;53.22;100807.88;10406200;28;20496;-73
2023/09/12 12:49:23;;;;;;;8.20;4.53;;;;;;;24.11;53.82;100811.31;10409783;28;20070;-73
2023/09/12 12:54:25;;;;;;;7.55;3.90;;;;;;;24.16;54.07;100810.22;10410278;28;20141;-73
2023/09/12 12:59:29;;;;;;;4.60;3.50;;;;;;;23.94;54.33;100806.13;10381850;28;20082;-74
2023/09/12 13:04:37;;;;;;;8.18;3.78;;;;;;;23.83;54.22;100805.94;10387144;28;20057;-73
2023/09/12 13:09:39;;;;;;;6.47;4.18;;;;;;;23.93;53.07;100802.53;10405949;28;20496;-74
2023/09/12 13:14:42;;;;;;;5.50;3.97;;;;;;;24.15;52.83;100806.63;10417242;28;20057;-73
2023/09/12 13:19:45;;;;;;;5.68;3.67;;;;;;;24.14;53.01;100799.38;10408594;28;20504;-73
2023/09/12 13:24:47;;;;;;;7.55;4.38;;;;;;;23.99;52.67;100797.47;10405164;28;20042;-73
2023/09/12 13:29:49;;;;;;;5.28;3.90;;;;;;;24.04;53.59;100795.16;10407114;28;20049;-73
2023/09/12 13:34:53;;;;;;;6.88;3.60;;;;;;;24.32;53.03;100803.38;10399234;28;20058;-73
2023/09/12 13:39:55;;;;;;;11.50;4.75;;;;;;;24.24;52.01;100803.56;10407263;28;20053;-74
2023/09/12 13:44:57;;;;;;;8.13;4.25;;;;;;;24.43;52.63;100800.78;10404870;28;20512;-74
2023/09/12 13:49:59;;;;;;;8.45;4.03;;;;;;;24.11;52.79;100793.69;10403111;28;20064;-73
2023/09/12 13:55:03;;;;;;;5.28;3.95;;;;;;;23.97;53.38;100797.03;10391383;28;20049;-74
2023/09/12 14:00:05;;;;;;;8.25;3.85;;;;;;;23.92;53.64;100798.09;10399149;28;20513;-74
2023/09/12 14:05:12;;;;;;;13.93;6.83;;;;;;;23.72;54.61;100800.06;10403654;28;20042;-74
2023/09/12 14:10:15;;;;;;;8.40;4.57;;;;;;;23.66;54.44;100798.75;10399839;28;20054;-73
2023/09/12 14:15:17;;;;;;;14.48;6.72;;;;;;;23.53;53.95;100788.81;10388688;28;20050;-74
2023/09/12 14:20:19;;;;;;;19.35;9.02;;;;;;;23.44;54.67;100797.44;10424268;28;20053;-73
2023/09/12 14:25:21;;;;;;;12.38;6.47;;;;;;;23.40;54.57;100790.91;10405728;28;20038;-73
2023/09/12 14:30:26;;;;;;;7.55;4.93;;;;;;;23.31;54.90;100790.31;10404152;28;20512;-72
2023/09/12 14:35:29;;;;;;;14.77;7.88;;;;;;;23.34;55.82;100791.56;10397966;28;20057;-72
2023/09/12 14:40:31;;;;;;;9.65;5.25;;;;;;;23.29;54.58;100789.84;10403078;28;20041;-72
2023/09/12 14:45:33;;;;;;;8.07;3.90;;;;;;;23.24;54.67;100786.50;10391575;28;20523;-72
2023/09/12 14:50:35;;;;;;;9.15;3.90;;;;;;;23.11;54.83;100785.81;10400031;28;20041;-72
2023/09/12 14:55:38;;;;;;;6.30;4.20;;;;;;;23.09;55.58;100788.97;10397937;28;20416;-72
2023/09/12 15:00:40;;;;;;;7.20;4.00;;;;;;;23.13;55.22;100789.88;10400615;28;20046;-72
2023/09/12 15:05:43;;;;;;;10.02;4.53;;;;;;;23.11;55.60;100795.03;10403908;28;20038;-72
2023/09/12 15:10:45;;;;;;;7.95;4.50;;;;;;;23.02;55.37;100785.19;10383246;28;20038;-72
2023/09/12 15:15:47;;;;;;;8.48;4.25;;;;;;;22.93;56.24;100788.16;10401963;28;20068;-72
2023/09/12 15:20:51;;;;;;;9.00;4.28;;;;;;;22.84;55.43;100790.31;10402803;28;20049;-72
2023/09/12 15:25:53;;;;;;;5.63;4.07;;;;;;;22.71;55.67;100792.34;10402123;28;20030;-72
2023/09/12 15:30:56;;;;;;;6.10;3.60;;;;;;;22.69;56.50;100796.69;10393597;28;20447;-73
2023/09/12 15:35:58;;;;;;;10.63;4.10;;;;;;;22.62;56.27;100799.31;10396479;28;20041;-72
2023/09/12 15:41:02;;;;;;;6.07;3.70;;;;;;;22.59;55.75;100792.44;10405584;28;20362;-72
2023/09/12 15:46:05;;;;;;;4.97;3.65;;;;;;;22.56;56.54;100799.56;10383527;28;20050;-71
2023/09/12 15:51:07;;;;;;;6.43;3.88;;;;;;;22.50;55.94;100792.59;10394654;28;20046;-72
2023/09/12 15:56:09;;;;;;;6.03;3.60;;;;;;;22.45;56.50;100801.25;10393698;28;20543;-72
2023/09/12 16:01:12;;;;;;;6.68;3.22;;;;;;;22.37;56.23;100802.22;10381148;28;20075;-72
2023/09/12 16:06:15;;;;;;;6.97;3.53;;;;;;;22.32;56.06;100808.06;10383154;28;20046;-72
2023/09/12 16:11:18;;;;;;;6.15;3.40;;;;;;;22.25;56.76;100803.09;10390095;28;20045;-85
2023/09/12 16:16:20;;;;;;;8.60;3.70;;;;;;;22.20;57.00;100805.31;10380550;28;20042;-82
2023/09/12 16:21:24;;;;;;;11.05;3.65;;;;;;;22.17;57.26;100814.41;10396333;28;20037;-80
2023/09/12 16:26:27;;;;;;;5.57;3.15;;;;;;;22.07;57.79;100801.78;10396296;28;20038;-72
2023/09/12 16:31:31;;;;;;;4.22;3.78;;;;;;;22.02;57.42;100804.78;10391571;28;20439;-72
2023/09/12 16:36:34;;;;;;;7.93;4.10;;;;;;;21.90;57.68;100805.66;10392572;28;20050;-72
2023/09/12 16:41:37;;;;;;;6.28;3.92;;;;;;;21.85;58.09;100805.06;10395151;28;20045;-73
2023/09/12 16:46:39;;;;;;;4.90;3.65;;;;;;;21.80;57.94;100805.31;10390726;28;20041;-71
2023/09/12 16:51:42;;;;;;;5.25;3.75;;;;;;;21.76;58.29;100802.41;10390088;28;20057;-71
2023/09/12 16:56:44;;;;;;;10.30;4.10;;;;;;;21.73;58.15;100796.72;10391204;28;20069;-72
2023/09/12 17:01:46;;;;;;;7.68;4.35;;;;;;;21.66;58.29;100802.91;10381872;28;20046;-72
2023/09/12 17:06:49;;;;;;;9.77;4.50;;;;;;;21.59;58.82;100808.28;10393287;28;20053;-72
2023/09/12 17:11:53;;;;;;;11.45;4.07;;;;;;;21.55;58.43;100810.16;10400584;28;20042;-72
2023/09/12 17:16:57;;;;;;;5.45;3.78;;;;;;;21.50;59.12;100804.78;10407423;28;20405;-78
2023/09/12 17:22:00;;;;;;;7.28;4.18;;;;;;;21.43;59.94;100807.34;10381069;28;20045;-72
2023/09/12 17:27:06;;;;;;;7.82;3.90;;;;;;;21.24;60.55;100802.34;10391933;28;20050;-76
2023/09/12 17:32:10;;;;;;;5.50;3.63;;;;;;;21.04;61.26;100802.09;10404770;28;20042;-71
2023/09/12 17:37:12;;;;;;;6.90;3.85;;;;;;;21.08;61.63;100805.81;10386773;28;20046;-79
2023/09/12 17:42:15;;;;;;;4.78;3.53;;;;;;;20.98;61.22;100802.66;10386394;28;20045;-80
2023/09/12 17:47:19;;;;;;;4.35;3.30;;;;;;;20.85;62.14;100801.03;10405318;28;20508;-81
2023/09/12 17:52:21;;;;;;;6.32;3.70;;;;;;;20.76;62.02;100803.91;10387830;28;20042;-80
2023/09/12 17:57:23;;;;;;;8.95;4.05;;;;;;;20.72;62.31;100798.22;10402408;28;20034;-76
2023/09/12 18:02:25;;;;;;;4.93;3.15;;;;;;;20.70;62.33;100794.16;10403051;28;20523;-77
2023/09/12 18:07:28;;;;;;;6.45;3.17;;;;;;;20.65;62.50;100798.00;10401737;28;20046;-78
2023/09/12 18:12:30;;;;;;;10.13;2.47;;;;;;;20.64;62.89;100793.53;10400880;28;20053;-79
2023/09/12 18:17:32;;;;;;;5.53;3.83;;;;;;;20.60;62.64;100794.59;10402024;28;20049;-74
2023/09/12 18:22:35;;;;;;;6.43;3.42;;;;;;;20.51;62.95;100791.91;10400452;28;20416;-74
2023/09/12 18:27:37;;;;;;;6.70;3.13;;;;;;;20.49;62.68;100797.00;10400733;28;20044;-74
2023/09/12 18:32:39;;;;;;;5.55;3.13;;;;;;;20.47;63.21;100791.75;10401409;28;20053;-75
2023/09/12 18:37:41;;;;;;;5.10;2.90;;;;;;;20.49;63.19;100783.06;10403011;28;20424;-76
2023/09/12 18:42:43;;;;;;;6.55;3.15;;;;;;;20.41;63.37;100783.97;10398930;28;20034;-75
2023/09/12 18:47:46;;;;;;;6.78;3.40;;;;;;;20.36;62.75;100789.72;10398205;28;20048;-78
2023/09/12 18:52:50;;;;;;;4.80;3.70;;;;;;;20.31;64.13;100790.78;10396804;28;20240;-77
2023/09/12 18:57:52;;;;;;;8.15;3.03;;;;;;;20.35;63.35;100794.50;10379230;28;20042;-76
2023/09/12 19:02:54;;;;;;;6.63;3.58;;;;;;;20.39;63.86;100786.25;10379356;28;20140;-78
2023/09/12 19:07:57;;;;;;;5.93;3.25;;;;;;;20.38;63.65;100793.00;10399043;28;20045;-72
2023/09/12 19:12:59;;;;;;;6.93;3.45;;;;;;;20.38;63.49;100781.84;10396649;28;20134;-75
2023/09/12 19:18:01;;;;;;;5.80;3.20;;;;;;;20.42;62.72;100788.38;10381277;28;20034;-79
2023/09/12 19:23:04;;;;;;;4.15;2.67;;;;;;;20.41;63.42;100779.22;10383033;28;20049;-74
2023/09/12 19:28:08;;;;;;;4.60;2.78;;;;;;;20.42;62.94;100791.97;10402402;28;20050;-77
2023/09/12 19:33:11;;;;;;;4.50;2.83;;;;;;;20.42;62.88;100789.19;10396812;28;20057;-77
2023/09/12 19:38:14;;;;;;;6.78;3.00;;;;;;;20.37;63.20;100792.19;10383307;28;20053;-77
2023/09/12 19:43:17;;;;;;;7.65;2.85;;;;;;;20.26;63.71;100779.00;10402848;28;20058;-75
2023/09/12 19:48:19;;;;;;;7.00;3.08;;;;;;;20.19;63.81;100787.94;10401211;28;20049;-78
2023/09/12 19:53:22;;;;;;;4.88;3.40;;;;;;;20.14;64.02;100786.19;10402712;28;20041;-78
2023/09/12 19:58:26;;;;;;;6.60;2.78;;;;;;;20.03;64.17;100793.31;10384896;28;20399;-77
2023/09/12 20:03:28;;;;;;;6.05;3.33;;;;;;;19.99;64.40;100786.00;10397423;28;20056;-78
2023/09/12 20:08:31;;;;;;;6.20;3.45;;;;;;;19.90;64.47;100791.63;10385376;28;20066;-79
2023/09/12 20:13:35;;;;;;;7.03;2.97;;;;;;;19.88;65.34;100799.50;10416257;28;20532;-77
2023/09/12 20:18:37;;;;;;;5.45;3.45;;;;;;;19.84;65.25;100793.81;10396857;28;20049;-79
2023/09/12 20:23:40;;;;;;;7.75;3.63;;;;;;;19.77;65.49;100789.91;10384848;28;20496;-75
2023/09/12 20:28:42;;;;;;;4.22;3.00;;;;;;;19.73;65.95;100788.97;10384593;28;20186;-75
2023/09/12 20:33:45;;;;;;;5.35;3.30;;;;;;;19.66;65.91;100785.94;10400382;28;20038;-74
2023/09/12 20:38:49;;;;;;;4.63;2.83;;;;;;;19.74;66.20;100791.41;10399711;28;20041;-78
2023/09/12 20:43:51;;;;;;;5.05;2.90;;;;;;;19.72;65.65;100799.28;10383750;28;20546;-77
2023/09/12 20:48:53;;;;;;;7.75;3.20;;;;;;;19.64;65.76;100785.44;10405536;28;20447;-74
2023/09/12 20:53:58;;;;;;;6.68;3.30;;;;;;;19.62;66.25;100782.19;10410094;28;20556;-78
2023/09/12 20:59:00;;;;;;;5.72;3.40;;;;;;;19.64;66.25;100785.44;10409141;28;20053;-79
2023/09/12 21:04:04;;;;;;;6.35;3.28;;;;;;;19.54;66.48;100784.69;10391169;28;20058;-83
2023/09/12 21:09:06;;;;;;;7.45;3.20;;;;;;;19.53;66.66;100791.38;10404353;28;20475;-81
2023/09/12 21:14:09;;;;;;;5.15;2.95;;;;;;;19.51;66.51;100792.88;10412489;28;20057;-83
2023/09/12 21:19:12;;;;;;;4.88;3.15;;;;;;;19.47;66.58;100791.91;10404492;28;20062;-86
2023/09/12 21:24:15;;;;;;;5.20;3.30;;;;;;;19.43;66.73;100794.53;10390570;28;20042;-82
2023/09/12 21:29:17;;;;;;;6.55;3.97;;;;;;;19.34;67.39;100798.53;10389482;28;20049;-82
2023/09/12 21:34:20;;;;;;;7.93;3.47;;;;;;;19.32;67.16;100800.84;10416180;28;20046;-81
2023/09/12 21:39:23;;;;;;;4.40;3.10;;;;;;;19.30;67.88;100794.81;10431317;28;20053;-75
2023/09/12 21:44:25;;;;;;;5.00;3.33;;;;;;;19.21;67.50;100800.41;10423808;28;20053;-78
2023/09/12 21:49:27;;;;;;;6.75;3.08;;;;;;;19.21;68.05;100797.63;10421036;28;20431;-74
2023/09/12 21:54:31;;;;;;;9.00;4.35;;;;;;;19.23;67.87;100789.75;10400460;28;20046;-74
2023/09/12 21:59:35;;;;;;;6.13;3.67;;;;;;;19.23;67.60;100792.53;10418753;28;20049;-75
2023/09/12 22:04:37;;;;;;;6.53;3.03;;;;;;;19.25;67.32;100796.59;10420500;28;20415;-76
2023/09/12 22:09:40;;;;;;;4.43;3.05;;;;;;;19.23;67.87;100798.09;10388017;28;20038;-75
2023/09/12 22:14:44;;;;;;;5.60;3.45;;;;;;;19.16;67.64;100801.41;10378295;28;20049;-75
2023/09/12 22:19:46;;;;;;;4.63;3.10;;;;;;;19.14;68.13;100800.13;10401645;28;20046;-75
2023/09/12 22:24:52;;;;;;;5.03;3.70;;;;;;;19.03;68.77;100799.66;10406709;28;20033;-80
2023/09/12 22:29:55;;;;;;;7.40;3.17;;;;;;;19.03;68.59;100794.13;10386777;28;20034;-75
2023/09/12 22:34:58;;;;;;;4.63;3.08;;;;;;;18.91;68.77;100794.81;10405233;28;20471;-78
2023/09/12 22:40:00;;;;;;;7.47;3.20;;;;;;;18.92;68.52;100782.56;10406063;28;20034;-75
2023/09/12 22:45:03;;;;;;;6.45;3.47;;;;;;;18.94;67.96;100783.03;10395844;28;20054;-76
2023/09/12 22:50:06;;;;;;;7.28;3.35;;;;;;;18.84;68.57;100782.59;10408206;28;20192;-77
2023/09/12 22:55:09;;;;;;;5.97;2.88;;;;;;;18.82;68.41;100773.75;10405438;28;20061;-75
2023/09/12 23:00:14;;;;;;;6.80;3.35;;;;;;;18.77;68.57;100773.94;10425682;28;20079;-75
2023/09/12 23:05:17;;;;;;;6.68;3.60;;;;;;;18.75;68.51;100792.94;10388673;28;20038;-75
2023/09/12 23:10:19;;;;;;;6.65;3.55;;;;;;;18.64;69.45;100782.16;10399414;28;20034;-74
2023/09/12 23:15:23;;;;;;;4.68;3.47;;;;;;;18.58;69.27;100786.25;10397969;28;20504;-75